Time;durP1;ratioP1;P1;durP2;ratioP2;P2;SDS_P1;SDS_P2;PMS_P1;PMS_P2;Temp;Humidity;BMP_temperature;BMP_pressure;BME280_temperature;BME280_humidity;BME280_pressure;Samples;Min_cycle;Max_cycle;Signal;HPM_P1;HPM_P2
2022/12/14 00:00:45;;;;;;;6.85;5.72;;;-3.10;99.90;;;;;;4970374;28;20825;-64
2022/12/14 00:03:12;;;;;;;11.15;6.53;;;-3.10;99.90;;;;;;4970549;28;20204;-64
2022/12/14 00:05:40;;;;;;;11.70;6.47;;;-3.10;99.90;;;;;;4970033;28;20211;-63
2022/12/14 00:08:08;;;;;;;11.55;5.15;;;-3.10;99.90;;;;;;4970638;28;20228;-62
2022/12/14 00:10:36;;;;;;;10.25;5.95;;;-3.10;99.90;;;;;;4969546;28;20200;-62
2022/12/14 00:13:05;;;;;;;9.73;5.80;;;-3.10;99.90;;;;;;4970191;28;20247;-65
2022/12/14 00:15:32;;;;;;;9.98;5.07;;;-3.10;99.90;;;;;;4970903;28;20203;-62
2022/12/14 00:18:01;;;;;;;8.48;5.30;;;-3.00;99.90;;;;;;4970731;28;20228;-63
2022/12/14 00:20:28;;;;;;;8.40;6.43;;;-3.00;99.90;;;;;;4970450;28;20218;-62
2022/12/14 00:22:57;;;;;;;9.13;5.75;;;-3.00;99.90;;;;;;4971133;28;20308;-62
2022/12/14 00:25:25;;;;;;;10.25;4.72;;;-3.00;99.90;;;;;;4970779;28;20633;-62
2022/12/14 00:27:53;;;;;;;8.68;5.25;;;-3.00;99.90;;;;;;4970837;28;20231;-62
2022/12/14 00:30:21;;;;;;;10.00;6.95;;;-3.00;99.90;;;;;;4970595;28;20199;-64
2022/12/14 00:32:48;;;;;;;9.15;5.70;;;-3.10;99.90;;;;;;4970691;28;20299;-64
2022/12/14 00:35:20;;;;;;;16.23;5.53;;;-3.10;99.90;;;;;;4970739;28;20367;-64
2022/12/14 00:37:47;;;;;;;9.50;5.15;;;-3.10;99.90;;;;;;4970222;28;20259;-64
2022/12/14 00:40:14;;;;;;;9.30;6.15;;;-3.10;99.90;;;;;;4977178;28;20621;-63
2022/12/14 00:42:41;;;;;;;14.35;6.38;;;-3.10;99.90;;;;;;4990371;28;20607;-63
2022/12/14 00:45:09;;;;;;;8.07;4.95;;;-3.20;99.90;;;;;;4988877;28;20204;-65
2022/12/14 00:47:35;;;;;;;9.75;5.65;;;-3.20;99.90;;;;;;5034118;23;20232;-94
2022/12/14 00:50:06;;;;;;;11.45;6.50;;;-3.20;99.90;;;;;;4992028;28;20291;-93
2022/12/14 00:52:34;;;;;;;8.30;5.60;;;-3.10;99.90;;;;;;4992078;28;20211;-92
2022/12/14 00:55:01;;;;;;;11.65;6.05;;;-3.10;99.90;;;;;;4994052;28;20215;-93
2022/12/14 00:57:29;;;;;;;9.75;5.82;;;-3.10;99.90;;;;;;4989735;28;20234;-93
2022/12/14 00:59:56;;;;;;;15.07;6.78;;;-3.10;99.90;;;;;;4988818;28;20207;-93
2022/12/14 01:02:23;;;;;;;9.65;6.15;;;-3.10;99.90;;;;;;4985707;28;20204;-93
2022/12/14 01:04:54;;;;;;;9.23;6.10;;;-3.00;99.90;;;;;;4988250;28;20203;-92
2022/12/14 01:07:21;;;;;;;15.15;6.20;;;-3.00;99.90;;;;;;4986478;28;20318;-93
2022/12/14 01:09:49;;;;;;;10.32;5.68;;;-3.00;99.90;;;;;;4987805;28;20318;-93
2022/12/14 01:12:16;;;;;;;9.95;5.63;;;-2.90;99.90;;;;;;4986824;28;20208;-92
2022/12/14 01:14:45;;;;;;;13.15;6.30;;;-2.90;99.90;;;;;;4989070;28;20232;-92
2022/12/14 01:17:12;;;;;;;11.43;7.03;;;-2.90;99.90;;;;;;4985096;28;20260;-92
2022/12/14 01:19:38;;;;;;;8.43;5.43;;;-2.90;99.90;;;;;;4983818;28;20222;-94
2022/12/14 01:22:05;;;;;;;11.50;6.60;;;-2.90;99.90;;;;;;4984779;28;20271;-94
2022/12/14 01:24:35;;;;;;;7.82;5.32;;;-2.90;99.90;;;;;;4984907;28;20291;-94
2022/12/14 01:27:03;;;;;;;8.70;5.57;;;-3.00;99.90;;;;;;4984005;28;20306;-94
2022/12/14 01:29:30;;;;;;;11.88;6.53;;;-3.00;99.90;;;;;;4984560;28;20319;-93
2022/12/14 01:31:57;;;;;;;10.57;5.70;;;-2.90;99.90;;;;;;4985126;28;20307;-93
2022/12/14 01:34:24;;;;;;;7.10;5.15;;;-2.90;99.90;;;;;;4984153;28;20204;-92
2022/12/14 01:36:51;;;;;;;10.40;6.65;;;-2.90;99.90;;;;;;4983255;28;20291;-92
2022/12/14 01:39:19;;;;;;;11.20;7.32;;;-2.90;99.90;;;;;;4983575;28;20204;-93
2022/12/14 01:41:49;;;;;;;13.93;8.02;;;-2.90;99.90;;;;;;4983896;28;20578;-93
2022/12/14 01:44:53;;;;;;;10.05;5.47;;;-2.90;99.90;;;;;;4985800;28;20209;-93
2022/12/14 01:47:36;;;;;;;13.13;6.57;;;-2.90;99.90;;;;;;4986783;28;20242;-95
2022/12/14 01:50:10;;;;;;;9.45;6.60;;;-2.80;99.90;;;;;;4995822;28;20228;-95
2022/12/14 01:52:41;;;;;;;11.50;6.05;;;-2.80;99.90;;;;;;4995204;28;20204;-95
2022/12/14 01:55:14;;;;;;;9.55;5.13;;;-2.80;99.90;;;;;;4994901;28;20209;-93
2022/12/14 01:57:45;;;;;;;10.35;6.10;;;-2.80;99.90;;;;;;4990346;28;20238;-94
2022/12/14 02:00:15;;;;;;;8.10;5.78;;;-2.80;99.90;;;;;;4987251;28;20202;-94
2022/12/14 02:02:47;;;;;;;13.55;7.13;;;-2.80;99.90;;;;;;4987196;28;20212;-94
2022/12/14 02:05:16;;;;;;;13.27;8.45;;;-2.80;99.90;;;;;;4985835;28;20597;-93
2022/12/14 02:07:44;;;;;;;8.43;6.70;;;-2.80;99.90;;;;;;4987344;28;20228;-94
2022/12/14 02:10:11;;;;;;;12.15;7.75;;;-2.80;99.90;;;;;;4987695;28;20219;-93
2022/12/14 02:12:45;;;;;;;10.20;6.10;;;-2.80;99.90;;;;;;4987081;28;20208;-92
2022/12/14 02:15:15;;;;;;;11.73;6.28;;;-2.80;99.90;;;;;;4986002;28;20299;-93
2022/12/14 02:17:43;;;;;;;9.18;5.45;;;-2.80;99.90;;;;;;4987864;28;20297;-93
2022/12/14 02:20:11;;;;;;;8.65;5.88;;;-2.80;99.90;;;;;;4989277;28;20207;-92
2022/12/14 02:23:29;;;;;;;7.05;5.80;;;-2.80;99.90;;;;;;4994311;28;20289;-93
2022/12/14 02:26:37;;;;;;;11.18;7.40;;;-2.80;99.90;;;;;;4891890;29;20242;-93
2022/12/14 02:29:37;;;;;;;8.98;5.20;;;-2.80;99.90;;;;;;4897570;29;20258;-93
2022/12/14 02:32:21;;;;;;;10.95;6.97;;;-2.80;99.90;;;;;;4989192;28;20212;-93
2022/12/14 02:34:57;;;;;;;8.20;5.18;;;-2.80;99.90;;;;;;4992546;28;20216;-93
2022/12/14 02:37:30;;;;;;;11.10;5.78;;;-2.80;99.90;;;;;;4993886;28;20238;-93
2022/12/14 02:40:11;;;;;;;9.02;6.05;;;-2.80;99.90;;;;;;4994224;28;20203;-94
2022/12/14 02:42:52;;;;;;;10.95;5.95;;;-2.80;99.90;;;;;;4997862;28;20207;-93
2022/12/14 02:45:25;;;;;;;6.20;5.60;;;-2.70;99.90;;;;;;5000259;28;20207;-93
2022/12/14 02:48:00;;;;;;;16.13;6.85;;;-2.70;99.90;;;;;;4999889;28;20243;-93
2022/12/14 02:50:34;;;;;;;11.55;6.40;;;-2.70;99.90;;;;;;4995923;28;20294;-94
2022/12/14 02:53:09;;;;;;;9.20;5.68;;;-2.60;99.90;;;;;;4994075;28;20235;-93
2022/12/14 02:55:39;;;;;;;10.88;7.20;;;-2.60;99.90;;;;;;4992156;28;20209;-93
2022/12/14 02:58:11;;;;;;;15.05;6.72;;;-2.50;99.90;;;;;;4999236;28;20225;-92
2022/12/14 03:00:39;;;;;;;10.18;5.82;;;-2.50;99.90;;;;;;4993219;28;20215;-92
2022/12/14 03:03:07;;;;;;;10.85;7.15;;;-2.40;99.90;;;;;;4992416;28;20200;-93
2022/12/14 03:05:35;;;;;;;10.95;7.60;;;-2.40;99.90;;;;;;4990850;28;20218;-93
2022/12/14 03:08:06;;;;;;;6.78;5.47;;;-2.40;99.90;;;;;;4990962;28;20829;-93
2022/12/14 03:10:38;;;;;;;8.38;5.30;;;-2.40;99.90;;;;;;4990900;28;20724;-93
2022/12/14 03:13:14;;;;;;;7.28;5.50;;;-2.50;99.90;;;;;;4990988;28;20204;-93
2022/12/14 03:15:44;;;;;;;8.35;6.25;;;-2.60;99.90;;;;;;4988976;28;20632;-93
2022/12/14 03:18:17;;;;;;;10.15;6.00;;;-2.60;99.90;;;;;;4985457;28;20225;-94
2022/12/14 03:20:52;;;;;;;11.95;6.28;;;-2.70;99.90;;;;;;4988201;28;20426;-93
2022/12/14 03:23:24;;;;;;;7.40;4.70;;;-2.70;99.90;;;;;;4988343;28;20238;-94
2022/12/14 03:25:58;;;;;;;9.10;6.22;;;-2.80;99.90;;;;;;4988062;28;20205;-94
2022/12/14 03:28:32;;;;;;;9.30;5.65;;;-2.70;99.90;;;;;;4987889;28;20223;-93
2022/12/14 03:31:06;;;;;;;7.35;5.78;;;-2.70;99.90;;;;;;4989556;28;20204;-93
2022/12/14 03:33:56;;;;;;;6.93;5.07;;;-2.70;99.90;;;;;;4990719;28;20581;-94
2022/12/14 03:36:29;;;;;;;7.00;6.05;;;-2.70;99.90;;;;;;4990411;28;20199;-94
2022/12/14 03:39:00;;;;;;;8.98;6.05;;;-2.70;99.90;;;;;;4987283;28;20690;-93
2022/12/14 03:41:33;;;;;;;7.93;6.05;;;-2.70;99.90;;;;;;4985243;28;20272;-94
2022/12/14 03:44:12;;;;;;;9.60;5.65;;;-2.70;99.90;;;;;;4986559;28;20270;-93
2022/12/14 03:46:49;;;;;;;10.38;6.57;;;-2.70;99.90;;;;;;4986223;28;20601;-94
2022/12/14 03:49:22;;;;;;;11.65;7.93;;;-2.70;99.90;;;;;;4988893;28;20219;-93
2022/12/14 03:51:58;;;;;;;11.88;5.70;;;-2.60;99.90;;;;;;4988708;28;20184;-94
2022/12/14 03:54:33;;;;;;;10.70;6.00;;;-2.60;99.90;;;;;;4989219;28;20207;-94
2022/12/14 03:57:06;;;;;;;8.75;6.40;;;-2.60;99.90;;;;;;4987713;28;20321;-93
2022/12/14 03:59:39;;;;;;;7.88;6.35;;;-2.60;99.90;;;;;;4986808;28;20211;-94
2022/12/14 04:02:10;;;;;;;10.77;6.35;;;-2.70;99.90;;;;;;4986986;28;20204;-93
2022/12/14 04:04:45;;;;;;;9.60;6.50;;;-2.70;99.90;;;;;;4987118;28;20235;-95
2022/12/14 04:07:17;;;;;;;7.70;6.30;;;-2.70;99.90;;;;;;4989269;28;20318;-93
2022/12/14 04:09:50;;;;;;;10.23;6.55;;;-2.70;99.90;;;;;;4988847;28;20248;-94
2022/12/14 04:20:48;;;;;;;11.88;6.72;;;-2.70;99.90;;;;;;4999055;28;20199;-93
2022/12/14 04:26:03;;;;;;;9.05;6.10;;;-2.70;99.90;;;;;;4992816;28;20282;-93
2022/12/14 04:26:09;;;;;;;6.97;5.50;;;-2.70;99.90;;;;;;4990210;28;20207;-93
2022/12/14 04:31:32;;;;;;;8.52;6.40;;;-2.70;99.90;;;;;;4988019;28;20288;-93
2022/12/14 04:34:05;;;;;;;16.20;6.90;;;-2.70;99.90;;;;;;4988090;28;20204;-93
2022/12/14 04:36:40;;;;;;;9.60;6.32;;;-2.70;99.90;;;;;;4984421;28;20311;-92
2022/12/14 04:39:11;;;;;;;10.27;5.47;;;-2.70;99.90;;;;;;4965627;28;20234;-91
2022/12/14 04:41:45;;;;;;;9.10;6.57;;;-2.60;99.90;;;;;;4973597;28;20273;-94
2022/12/14 04:44:15;;;;;;;13.82;6.88;;;-2.60;99.90;;;;;;4995750;28;20233;-93
2022/12/14 04:46:44;;;;;;;9.95;6.88;;;-2.60;99.90;;;;;;4981053;28;20223;-95
2022/12/14 04:49:18;;;;;;;11.77;6.80;;;-2.60;99.90;;;;;;4979561;28;20203;-93
2022/12/14 04:51:52;;;;;;;17.08;7.63;;;-2.60;99.90;;;;;;4981283;28;20232;-93
2022/12/14 04:54:27;;;;;;;9.07;6.32;;;-2.50;99.90;;;;;;4983991;28;20765;-94
2022/12/14 04:57:01;;;;;;;9.43;5.70;;;-2.50;99.90;;;;;;4983706;28;20292;-94
2022/12/14 04:59:29;;;;;;;8.07;6.55;;;-2.50;99.90;;;;;;4994363;28;20196;-94
2022/12/14 05:02:03;;;;;;;12.93;7.80;;;-2.50;99.90;;;;;;4977523;28;20228;-94
2022/12/14 05:04:53;;;;;;;10.23;5.53;;;-2.50;99.90;;;;;;5010564;23;20236;-67
2022/12/14 05:07:31;;;;;;;12.57;6.60;;;-2.40;99.90;;;;;;5001667;28;20227;-68
2022/12/14 05:10:03;;;;;;;10.32;6.53;;;-2.40;99.90;;;;;;5001250;28;20219;-68
2022/12/14 05:12:39;;;;;;;11.48;6.30;;;-2.40;99.90;;;;;;4999692;28;20199;-68
2022/12/14 05:15:10;;;;;;;11.32;6.68;;;-2.50;99.90;;;;;;4999733;28;20206;-67
2022/12/14 05:17:39;;;;;;;14.90;8.15;;;-2.50;99.90;;;;;;5000454;28;20223;-68
2022/12/14 05:20:12;;;;;;;11.55;6.45;;;-2.50;99.90;;;;;;5001576;28;20191;-69
2022/12/14 05:22:41;;;;;;;13.93;7.22;;;-2.40;99.90;;;;;;5001261;28;20200;-68
2022/12/14 05:25:08;;;;;;;10.82;7.38;;;-2.30;99.90;;;;;;4999168;28;20203;-68
2022/12/14 05:27:35;;;;;;;13.60;7.32;;;-2.30;99.90;;;;;;5001657;28;20220;-68
2022/12/14 05:30:02;;;;;;;13.18;7.32;;;-2.30;99.90;;;;;;5000325;28;20211;-68
2022/12/14 05:32:29;;;;;;;9.75;6.50;;;-2.30;99.90;;;;;;5001578;28;20195;-68
2022/12/14 05:34:56;;;;;;;13.02;6.93;;;-2.20;99.90;;;;;;5010737;28;20229;-68
2022/12/14 05:37:22;;;;;;;10.63;6.82;;;-2.10;99.90;;;;;;5009133;28;20230;-68
2022/12/14 05:39:50;;;;;;;10.02;6.22;;;-2.10;99.90;;;;;;5009609;28;20207;-68
2022/12/14 05:42:17;;;;;;;14.63;7.50;;;-2.10;99.90;;;;;;5010287;28;20209;-68
2022/12/14 05:44:44;;;;;;;13.18;8.00;;;-2.00;99.90;;;;;;5010791;28;20233;-68
2022/12/14 05:47:11;;;;;;;12.10;7.30;;;-2.00;99.90;;;;;;5010374;28;20226;-68
2022/12/14 05:49:37;;;;;;;12.20;7.68;;;-2.00;99.90;;;;;;5011305;28;20283;-68
2022/12/14 05:52:04;;;;;;;9.68;6.60;;;-2.00;99.90;;;;;;5010864;28;20213;-68
2022/12/14 05:54:31;;;;;;;15.50;9.15;;;-2.00;99.90;;;;;;5011178;28;20207;-68
2022/12/14 05:56:59;;;;;;;17.13;8.10;;;-2.00;99.90;;;;;;5011479;28;20227;-68
2022/12/14 05:59:26;;;;;;;13.05;7.25;;;-2.00;99.90;;;;;;5011151;28;20285;-68
2022/12/14 06:01:53;;;;;;;11.10;6.53;;;-2.00;99.90;;;;;;5010764;28;20205;-68
2022/12/14 06:04:19;;;;;;;9.40;7.07;;;-2.00;99.90;;;;;;5010982;28;20235;-68
2022/12/14 06:06:46;;;;;;;9.00;7.03;;;-2.00;99.90;;;;;;5011287;28;20289;-68
2022/12/14 06:09:15;;;;;;;9.70;6.13;;;-2.00;99.90;;;;;;5010924;28;20209;-68
2022/12/14 06:11:42;;;;;;;15.65;7.30;;;-1.90;99.90;;;;;;5010451;28;20318;-68
2022/12/14 06:14:11;;;;;;;10.27;7.60;;;-1.90;99.90;;;;;;5010930;28;20289;-68
2022/12/14 06:16:40;;;;;;;14.55;7.43;;;-2.00;99.90;;;;;;5010727;28;20206;-68
2022/12/14 06:19:07;;;;;;;13.25;8.38;;;-2.00;99.90;;;;;;5010772;28;20676;-68
2022/12/14 06:21:36;;;;;;;13.23;8.35;;;-2.00;99.90;;;;;;5010581;28;20199;-68
2022/12/14 06:24:03;;;;;;;10.98;7.82;;;-2.00;99.90;;;;;;5010787;28;20203;-68
2022/12/14 06:26:32;;;;;;;12.15;6.85;;;-2.00;99.90;;;;;;5010460;28;20207;-68
2022/12/14 06:28:59;;;;;;;13.70;7.25;;;-1.90;99.90;;;;;;5010591;28;20202;-68
2022/12/14 06:31:29;;;;;;;7.45;6.75;;;-1.90;99.90;;;;;;5009805;28;20701;-68
2022/12/14 06:33:59;;;;;;;11.80;7.38;;;-1.90;99.90;;;;;;5010889;28;20584;-68
2022/12/14 06:36:27;;;;;;;10.23;8.38;;;-1.90;99.90;;;;;;5010466;28;20948;-68
2022/12/14 06:38:55;;;;;;;14.30;8.40;;;-1.90;99.90;;;;;;5010703;28;20241;-68
2022/12/14 06:41:23;;;;;;;9.35;6.40;;;-2.00;99.90;;;;;;5009883;28;20206;-68
2022/12/14 06:43:50;;;;;;;13.60;7.60;;;-2.00;99.90;;;;;;5010793;28;20202;-68
2022/12/14 06:46:19;;;;;;;15.73;7.40;;;-2.00;99.90;;;;;;5010574;28;20206;-70
2022/12/14 06:48:50;;;;;;;11.60;6.60;;;-2.00;99.90;;;;;;4991540;23;20231;-62
2022/12/14 06:51:17;;;;;;;11.85;7.78;;;-2.10;99.90;;;;;;4970615;28;20699;-63
2022/12/14 06:53:45;;;;;;;12.63;7.55;;;-2.10;99.90;;;;;;4971539;28;20208;-62
2022/12/14 06:56:13;;;;;;;12.93;8.18;;;-2.10;99.90;;;;;;4971599;28;20207;-61
2022/12/14 06:58:40;;;;;;;13.93;7.63;;;-2.20;99.90;;;;;;4971599;28;20228;-63
2022/12/14 07:01:09;;;;;;;11.25;6.75;;;-2.20;99.90;;;;;;4970780;28;20222;-62
2022/12/14 07:03:36;;;;;;;13.32;8.05;;;-2.20;99.90;;;;;;4971758;28;20205;-62
2022/12/14 07:06:06;;;;;;;13.57;8.32;;;-2.20;99.90;;;;;;4981376;28;20200;-62
2022/12/14 07:08:34;;;;;;;12.02;8.15;;;-2.10;99.90;;;;;;4988100;28;20223;-63
2022/12/14 07:11:02;;;;;;;13.35;9.65;;;-2.10;99.90;;;;;;4990128;28;20231;-63
2022/12/14 07:13:29;;;;;;;15.30;7.53;;;-2.10;99.90;;;;;;4990762;28;20199;-63
2022/12/14 07:15:57;;;;;;;11.02;7.32;;;-2.10;99.90;;;;;;4991060;28;20207;-63
2022/12/14 07:18:25;;;;;;;10.98;7.63;;;-2.00;99.90;;;;;;4991410;28;20231;-63
2022/12/14 07:20:56;;;;;;;9.88;6.53;;;-2.00;99.90;;;;;;4990443;28;20203;-63
2022/12/14 07:23:24;;;;;;;11.77;8.02;;;-2.00;99.90;;;;;;4991077;28;20211;-62
2022/12/14 07:25:51;;;;;;;11.48;8.70;;;-2.00;99.90;;;;;;4990716;28;20204;-63
2022/12/14 07:28:19;;;;;;;11.15;7.38;;;-2.00;99.90;;;;;;4990849;28;20219;-63
2022/12/14 07:30:46;;;;;;;9.00;7.30;;;-2.00;99.90;;;;;;4993606;28;20231;-63
2022/12/14 07:33:13;;;;;;;12.73;8.20;;;-2.10;99.90;;;;;;4994244;28;20235;-63
2022/12/14 07:35:40;;;;;;;10.40;7.63;;;-2.10;99.90;;;;;;4994313;28;20578;-63
2022/12/14 07:38:07;;;;;;;12.50;7.60;;;-2.10;99.90;;;;;;4993893;28;20230;-62
2022/12/14 07:40:35;;;;;;;15.00;9.10;;;-2.00;99.90;;;;;;4993708;28;20204;-63
2022/12/14 07:43:02;;;;;;;14.85;9.93;;;-2.00;99.90;;;;;;4994043;28;20214;-63
2022/12/14 07:45:29;;;;;;;12.65;8.55;;;-1.90;99.90;;;;;;4994397;28;20679;-63
2022/12/14 07:47:57;;;;;;;13.32;8.20;;;-1.90;99.90;;;;;;4987989;28;20237;-63
2022/12/14 07:50:23;;;;;;;11.75;8.35;;;-1.80;99.90;;;;;;4993683;28;20223;-63
2022/12/14 07:52:50;;;;;;;14.75;8.95;;;-1.80;99.90;;;;;;4993943;28;20199;-62
2022/12/14 07:55:17;;;;;;;13.15;9.25;;;-1.70;99.90;;;;;;4990489;28;20200;-63
2022/12/14 07:57:46;;;;;;;14.10;8.65;;;-1.70;99.90;;;;;;4974234;28;20232;-63
2022/12/14 08:00:15;;;;;;;12.52;9.00;;;-1.70;99.90;;;;;;4974004;28;20231;-63
2022/12/14 08:02:42;;;;;;;14.65;10.05;;;-1.60;99.90;;;;;;4974352;28;20204;-63
2022/12/14 08:05:10;;;;;;;14.82;8.90;;;-1.60;99.90;;;;;;4974355;28;20579;-63
2022/12/14 08:07:37;;;;;;;12.40;8.23;;;-1.60;99.90;;;;;;4974347;28;20227;-63
2022/12/14 08:10:04;;;;;;;17.27;9.35;;;-1.50;99.90;;;;;;4973684;28;20452;-63
2022/12/14 08:12:32;;;;;;;13.07;7.82;;;-1.50;99.90;;;;;;4973796;28;20212;-63
2022/12/14 08:15:00;;;;;;;13.63;8.60;;;-1.50;99.90;;;;;;4973964;28;20679;-63
2022/12/14 08:17:27;;;;;;;13.32;8.65;;;-1.50;99.90;;;;;;4974014;28;20220;-63
2022/12/14 08:19:53;;;;;;;23.80;7.95;;;-1.50;99.90;;;;;;4973911;28;20556;-63
2022/12/14 08:22:36;;;;;;;16.40;9.00;;;-1.50;99.90;;;;;;4973556;28;20211;-62
2022/12/14 08:25:03;;;;;;;14.60;8.52;;;-1.40;99.90;;;;;;4973454;28;20201;-65
2022/12/14 08:27:30;;;;;;;14.82;9.18;;;-1.40;99.90;;;;;;4973942;28;20290;-63
2022/12/14 08:29:57;;;;;;;15.88;8.88;;;-1.40;99.90;;;;;;4973659;28;20593;-63
2022/12/14 08:32:25;;;;;;;15.82;9.52;;;-1.30;99.90;;;;;;4973518;28;20281;-63
2022/12/14 08:34:51;;;;;;;13.57;8.35;;;-1.30;99.90;;;;;;4984989;28;20204;-63
2022/12/14 08:37:18;;;;;;;17.23;9.40;;;-1.30;99.90;;;;;;4993487;28;20586;-63
2022/12/14 08:39:45;;;;;;;11.75;9.07;;;-1.30;99.90;;;;;;4992690;28;20651;-61
2022/12/14 08:42:12;;;;;;;11.63;9.25;;;-1.30;99.90;;;;;;4992731;28;20199;-63
2022/12/14 08:44:38;;;;;;;18.27;8.77;;;-1.20;99.90;;;;;;4993086;28;20232;-63
2022/12/14 08:47:05;;;;;;;15.45;9.40;;;-1.20;99.90;;;;;;4993027;28;20231;-62
2022/12/14 08:49:33;;;;;;;14.30;9.80;;;-1.10;99.90;;;;;;4992987;28;20207;-63
2022/12/14 08:52:00;;;;;;;16.90;9.30;;;-1.10;99.90;;;;;;4992162;28;20234;-63
2022/12/14 08:54:27;;;;;;;14.07;8.32;;;-1.10;99.90;;;;;;4992778;28;20693;-63
2022/12/14 08:56:53;;;;;;;17.85;10.57;;;-1.00;99.90;;;;;;4992584;28;20307;-63
2022/12/14 08:59:20;;;;;;;18.73;9.00;;;-1.00;99.90;;;;;;4992595;28;20210;-62
2022/12/14 09:01:47;;;;;;;15.90;10.65;;;-1.00;99.90;;;;;;4992373;28;20250;-63
2022/12/14 09:04:14;;;;;;;15.40;8.98;;;-1.00;99.90;;;;;;4992748;28;20306;-63
2022/12/14 09:06:42;;;;;;;14.27;9.05;;;-0.90;99.90;;;;;;4992853;28;20214;-63
2022/12/14 09:09:09;;;;;;;17.50;9.85;;;-0.80;99.90;;;;;;4993109;28;20214;-61
2022/12/14 09:11:36;;;;;;;13.10;9.40;;;-0.70;99.90;;;;;;4992171;28;20781;-63
2022/12/14 09:14:02;;;;;;;18.20;10.07;;;-0.70;99.90;;;;;;4992612;28;20611;-64
2022/12/14 09:16:29;;;;;;;19.30;13.30;;;-0.80;99.90;;;;;;4992648;28;20211;-62
2022/12/14 09:18:56;;;;;;;15.45;10.07;;;-0.80;99.90;;;;;;4992301;28;20235;-63
2022/12/14 09:21:23;;;;;;;16.33;9.75;;;-0.80;99.90;;;;;;4992257;28;20199;-63
2022/12/14 09:23:51;;;;;;;18.38;10.75;;;-0.80;99.90;;;;;;4992536;28;20208;-63
2022/12/14 09:26:19;;;;;;;17.50;9.55;;;-0.80;99.90;;;;;;4992440;28;20250;-63
2022/12/14 09:28:48;;;;;;;15.75;10.13;;;-0.90;99.90;;;;;;4992197;28;20250;-63
2022/12/14 09:31:17;;;;;;;13.40;10.23;;;-0.90;99.90;;;;;;4991973;28;20319;-63
2022/12/14 09:33:44;;;;;;;15.48;8.82;;;-1.00;99.90;;;;;;4992472;28;20435;-63
2022/12/14 09:36:13;;;;;;;20.33;10.23;;;-1.00;99.90;;;;;;4992116;28;20200;-63
2022/12/14 09:38:42;;;;;;;16.15;9.43;;;-1.10;99.90;;;;;;4991977;28;20228;-63
2022/12/14 09:41:31;;;;;;;17.92;9.30;;;-1.10;99.90;;;;;;4991482;28;20294;-63
2022/12/14 09:44:05;;;;;;;13.48;8.10;;;-1.10;99.90;;;;;;4991797;28;20207;-63
2022/12/14 09:46:47;;;;;;;22.25;8.77;;;-1.10;99.90;;;;;;4992014;28;20202;-63
2022/12/14 09:49:24;;;;;;;20.20;11.05;;;-1.20;99.90;;;;;;4992031;28;20200;-63
2022/12/14 09:51:53;;;;;;;17.10;10.82;;;-1.10;99.90;;;;;;4990717;28;20263;-63
2022/12/14 09:54:25;;;;;;;14.80;9.65;;;-1.10;99.90;;;;;;4992025;28;20250;-63
2022/12/14 09:56:57;;;;;;;16.02;10.55;;;-1.00;99.90;;;;;;4991964;28;20227;-61
2022/12/14 09:59:26;;;;;;;17.00;10.55;;;-1.00;99.90;;;;;;4992042;28;20671;-63
2022/12/14 10:02:01;;;;;;;16.48;9.68;;;-1.00;99.90;;;;;;4991390;28;20199;-63
2022/12/14 10:04:44;;;;;;;17.55;9.45;;;-1.10;99.90;;;;;;4992139;28;20203;-61
2022/12/14 10:07:18;;;;;;;17.95;9.93;;;-1.10;99.90;;;;;;4991691;28;20225;-63
2022/12/14 10:09:54;;;;;;;14.52;9.48;;;-1.10;99.90;;;;;;4991385;28;20693;-63
2022/12/14 10:12:40;;;;;;;14.85;9.30;;;-1.10;99.90;;;;;;4991170;28;20231;-63
2022/12/14 10:15:19;;;;;;;14.55;10.05;;;-1.00;99.90;;;;;;4991735;28;20306;-63
2022/12/14 10:18:09;;;;;;;18.88;9.48;;;-1.00;99.90;;;;;;4991361;28;20227;-64
2022/12/14 10:20:46;;;;;;;15.63;10.23;;;-0.90;99.90;;;;;;4991303;28;20212;-63
2022/12/14 10:23:16;;;;;;;22.65;11.38;;;-0.80;99.90;;;;;;4991572;28;20215;-63
2022/12/14 10:25:45;;;;;;;19.88;10.35;;;-0.70;99.90;;;;;;4991346;28;20203;-63
2022/12/14 10:28:18;;;;;;;16.15;9.20;;;-0.80;99.90;;;;;;4991481;28;20230;-62
2022/12/14 10:30:46;;;;;;;14.40;9.80;;;-0.70;99.90;;;;;;4990671;28;20199;-63
2022/12/14 10:33:20;;;;;;;15.95;10.90;;;-0.80;99.90;;;;;;4991539;28;20215;-63
2022/12/14 10:35:51;;;;;;;23.73;10.57;;;-0.80;99.90;;;;;;4991425;28;20242;-63
2022/12/14 10:38:23;;;;;;;18.98;11.32;;;-0.80;99.90;;;;;;4991277;28;20230;-63
2022/12/14 10:40:54;;;;;;;16.05;10.13;;;-0.80;99.90;;;;;;4990731;28;20448;-62
2022/12/14 10:43:37;;;;;;;14.52;9.63;;;-0.80;99.90;;;;;;4991504;28;20604;-63
2022/12/14 10:46:18;;;;;;;22.98;10.82;;;-0.70;99.90;;;;;;4990753;28;20264;-63
2022/12/14 10:48:51;;;;;;;19.40;12.65;;;-0.60;99.90;;;;;;4990973;28;20231;-63
2022/12/14 10:51:25;;;;;;;16.17;10.52;;;-0.50;99.90;;;;;;4990245;28;20231;-63
2022/12/14 10:53:55;;;;;;;18.45;10.30;;;-0.50;99.90;;;;;;4990935;28;20203;-62
2022/12/14 10:56:26;;;;;;;15.38;9.85;;;-0.40;99.90;;;;;;4991202;28;20204;-62
2022/12/14 10:59:19;;;;;;;21.10;12.35;;;-0.40;99.90;;;;;;4990944;28;20671;-63
2022/12/14 11:01:48;;;;;;;15.95;9.68;;;-0.40;99.90;;;;;;4991172;28;20210;-61
2022/12/14 11:04:28;;;;;;;14.88;10.68;;;-0.40;99.90;;;;;;4980973;28;20195;-63
2022/12/14 11:06:55;;;;;;;18.33;10.80;;;-0.30;99.90;;;;;;4975282;28;20227;-62
2022/12/14 11:09:23;;;;;;;16.10;11.88;;;-0.30;99.90;;;;;;4975340;28;20211;-62
2022/12/14 11:11:57;;;;;;;16.75;9.82;;;-0.20;99.90;;;;;;4974592;28;20228;-62
2022/12/14 11:14:26;;;;;;;17.13;11.02;;;-0.30;99.90;;;;;;4975412;28;20219;-62
2022/12/14 11:16:53;;;;;;;19.15;11.77;;;-0.20;99.90;;;;;;4975175;28;20236;-62
2022/12/14 11:19:22;;;;;;;20.17;11.73;;;-0.20;99.90;;;;;;4975228;28;20212;-61
2022/12/14 11:21:50;;;;;;;15.27;10.32;;;-0.20;99.90;;;;;;4974354;28;20276;-62
2022/12/14 11:24:25;;;;;;;15.38;10.30;;;-0.20;99.90;;;;;;4975023;28;20204;-62
2022/12/14 11:26:53;;;;;;;17.70;9.77;;;-0.30;99.90;;;;;;4974928;28;20228;-62
2022/12/14 11:29:26;;;;;;;15.88;10.18;;;-0.30;99.90;;;;;;4975173;28;20210;-62
2022/12/14 11:31:54;;;;;;;20.58;10.82;;;-0.20;99.90;;;;;;4974574;28;20219;-63
2022/12/14 11:34:29;;;;;;;17.70;12.23;;;-0.20;99.90;;;;;;4975723;28;20208;-61
2022/12/14 11:37:10;;;;;;;24.42;11.68;;;-0.20;99.90;;;;;;4972929;28;20641;-62
2022/12/14 11:39:41;;;;;;;21.50;11.68;;;-0.10;99.90;;;;;;4973862;28;20652;-62
2022/12/14 11:42:16;;;;;;;14.57;9.77;;;-0.10;99.90;;;;;;4973024;28;20608;-63
2022/12/14 11:44:44;;;;;;;21.98;11.57;;;0.00;99.90;;;;;;4974326;28;20617;-63
2022/12/14 11:47:15;;;;;;;14.23;9.75;;;0.00;99.90;;;;;;4974176;28;20263;-63
2022/12/14 11:49:47;;;;;;;23.38;10.98;;;0.10;99.90;;;;;;4973166;28;20247;-62
2022/12/14 11:52:17;;;;;;;22.80;11.82;;;0.10;99.90;;;;;;4973225;28;20561;-63
2022/12/14 11:54:45;;;;;;;20.65;11.98;;;0.10;99.90;;;;;;4973879;28;20246;-62
2022/12/14 11:57:21;;;;;;;16.98;11.80;;;0.10;99.90;;;;;;4973186;28;20224;-63
2022/12/14 11:59:53;;;;;;;22.63;12.18;;;0.10;99.90;;;;;;4973245;28;20613;-62
2022/12/14 12:02:27;;;;;;;16.58;11.57;;;0.10;99.90;;;;;;4972703;28;20291;-62
2022/12/14 12:04:58;;;;;;;28.95;13.75;;;0.20;99.90;;;;;;4973192;28;20215;-62
2022/12/14 12:07:30;;;;;;;19.98;10.88;;;0.30;99.90;;;;;;4973948;28;20224;-62
2022/12/14 12:10:05;;;;;;;18.10;11.73;;;0.50;99.90;;;;;;4973373;28;20204;-63
2022/12/14 12:12:33;;;;;;;16.73;11.82;;;0.80;99.90;;;;;;4972940;28;20734;-63
2022/12/14 12:15:03;;;;;;;17.02;11.80;;;0.90;99.90;;;;;;4972931;28;20235;-62
2022/12/14 12:17:43;;;;;;;25.52;13.27;;;1.10;99.90;;;;;;4973981;28;20236;-63
2022/12/14 12:20:32;;;;;;;24.58;12.75;;;1.20;99.90;;;;;;4972749;28;20982;-63
2022/12/14 12:23:04;;;;;;;18.77;12.70;;;1.40;99.90;;;;;;4973484;28;20235;-62
2022/12/14 12:25:34;;;;;;;15.60;11.68;;;1.30;99.90;;;;;;4972445;28;20204;-62
2022/12/14 12:28:12;;;;;;;23.55;11.68;;;1.30;99.90;;;;;;4972904;28;20228;-63
2022/12/14 12:30:43;;;;;;;18.27;11.32;;;1.20;99.90;;;;;;4972705;28;20229;-63
2022/12/14 12:33:24;;;;;;;21.70;13.23;;;1.20;99.90;;;;;;4973097;28;20692;-63
2022/12/14 12:35:55;;;;;;;17.08;10.77;;;1.10;99.90;;;;;;4972999;28;20208;-62
2022/12/14 12:38:39;;;;;;;17.55;13.25;;;1.00;99.90;;;;;;4972993;28;20259;-62
2022/12/14 12:41:17;;;;;;;20.13;11.77;;;1.00;99.90;;;;;;4971756;28;20247;-63
2022/12/14 12:43:52;;;;;;;21.75;12.35;;;0.90;99.90;;;;;;4973402;28;20578;-60
2022/12/14 12:46:24;;;;;;;25.35;13.07;;;0.90;99.90;;;;;;4972940;28;20239;-62
2022/12/14 12:48:58;;;;;;;17.40;13.65;;;0.90;99.90;;;;;;4972637;28;20219;-62
2022/12/14 12:51:28;;;;;;;22.85;12.60;;;0.90;99.90;;;;;;4972968;28;20208;-63
2022/12/14 12:53:59;;;;;;;16.95;11.68;;;0.90;99.90;;;;;;4972613;28;20295;-62
2022/12/14 12:56:36;;;;;;;27.45;14.43;;;0.90;99.90;;;;;;4972574;28;20622;-62
2022/12/14 12:59:04;;;;;;;18.15;10.70;;;0.90;99.90;;;;;;4972386;28;20211;-62
2022/12/14 13:01:38;;;;;;;27.20;14.00;;;0.90;99.90;;;;;;4972015;28;20683;-62
2022/12/14 13:04:12;;;;;;;21.27;12.85;;;0.90;99.90;;;;;;4971962;28;20295;-60
2022/12/14 13:06:47;;;;;;;18.45;12.15;;;0.90;99.90;;;;;;4972696;28;20211;-63
2022/12/14 13:09:19;;;;;;;22.55;11.95;;;0.90;99.90;;;;;;4972387;28;20207;-63